HRHO2: North Canadian River

                                SHEF ID:       HRHO2     North Canadian River near Harrah
STATION TYPE:
Regulating: Stage = 15.00, Flow = 8563

STAGE RIV-FLOW WTR-TEMP DIS-OXY PH CONDUCT BAT-LOAD
ft cfs F mg/l su umho/cm volt
Ccp-Rev Ccp-Rev Ccp-Rev Ccp-Rev Ccp-Rev Ccp-Rev Ccp-Rev
(America/Chicago)
07/16 00:00 3.27 122 83.71 1.72 6.63 702 11.91
07/16 01:00 3.26 120 82.53 1.03 6.63 689 ----
07/16 02:00 3.26 120 82.17 1.38 6.61 718 11.94
07/16 03:00 3.27 122 81.03 1.17 6.62 697 ----
07/16 04:00 3.28 123 80.67 1.20 6.61 725 11.91
07/16 05:00 3.28 123 79.77 1.06 6.65 691 ----
07/16 06:00 3.29 125 79.25 1.27 6.59 699 11.89
07/16 07:00 3.31 129 78.87 1.43 6.65 664 11.88
07/16 08:00 3.32 131 78.84 1.86 6.64 693 11.90
07/16 09:00 ---- ---- ---- ---- ---- ---- ----
07/16 10:00 3.33 133-179966.20 -99999.00 -99999.00 -99999 ----
07/16 11:00 3.37 140 83.32 11.82 8.82 708 12.30
07/16 12:00 3.42 150 85.24 12.92 8.95 725 12.93
07/16 13:00 3.50 166 85.24 11.99 8.99 736 12.99
07/16 14:00 3.56 179 84.38 11.40 8.95 741 12.63
07/16 15:00 3.59 185 84.06 11.89 8.98 739 12.80
07/16 16:00 3.61 189 84.36 12.93 9.09 700 13.06
07/16 17:00 3.61 189 85.53 14.40 9.24 658 12.99
07/16 18:00 3.60 187 85.86 13.59 9.27 638 12.93
07/16 19:00 3.58 183 85.73 12.30 9.25 612 12.65
07/16 20:00 3.56 179 85.26 10.52 9.16 579 12.50
07/16 21:00 3.53 172 84.54 9.01 9.08 543 12.24
07/16 22:00 3.52 170 83.91 8.04 8.99 509 12.07
07/16 23:00 3.51 168 83.66 7.59 8.96 497 11.96
Data processed at Fri 17Jul2026 04:25 GMT

NOTICE: If you are parsing this page

Please convert to using our Data API. Starting early 2026 we will be migrating to: https://water.usace.army.mil with modern pages rendered in JavaScript. When this migration completes you will no longer be able to scrape this page! CWMSDataAPI (CDA)

Timeseries IDs (TSIDs)

TSIDs used from left to right in the data table
HARR.Stage.Inst.1Hour.0.Ccp-Rev
HARR.Flow.Inst.1Hour.0.Ccp-Rev
HARR.Temp-Water.Inst.1Hour.0.Ccp-Rev
HARR.Conc-DO.Inst.1Hour.0.Ccp-Rev
HARR.pH.Inst.1Hour.0.Ccp-Rev
HARR.Cond-Water.Inst.1Hour.0.Ccp-Rev
HARR.Volt-Battery Load.Inst.1Hour.0.Ccp-Rev

                            

All information presented herein is the property of the government of the United States of America and may be revised or deleted at any time without prior notice. Dissemination of this information without the expressed written consent of the Public Affairs Office, Tulsa District U.S. Army Corps of Engineers is strictly prohibited. These data are gathered electronically and, as presented, have NOT undergone any form of quality control. These data are NOT guaranteed to be valid or correct.